sensor_id;sensor_type;location;lat;lon;timestamp;P1;durP1;ratioP1;P2;durP2;ratioP2
19358;SDS011;9815;52.334;20.890;2024-01-25T00:00:49;13.37;;;3.37;;
19358;SDS011;9815;52.334;20.890;2024-01-25T00:03:19;15.77;;;3.30;;
19358;SDS011;9815;52.334;20.890;2024-01-25T00:05:47;14.30;;;2.93;;
19358;SDS011;9815;52.334;20.890;2024-01-25T00:08:16;13.63;;;2.80;;
19358;SDS011;9815;52.334;20.890;2024-01-25T00:10:45;11.87;;;3.23;;
19358;SDS011;9815;52.334;20.890;2024-01-25T00:13:13;12.57;;;2.70;;
19358;SDS011;9815;52.334;20.890;2024-01-25T00:15:42;9.33;;;2.33;;
19358;SDS011;9815;52.334;20.890;2024-01-25T00:18:11;11.13;;;2.47;;
19358;SDS011;9815;52.334;20.890;2024-01-25T00:20:40;10.03;;;2.50;;
19358;SDS011;9815;52.334;20.890;2024-01-25T00:23:09;10.20;;;2.90;;
19358;SDS011;9815;52.334;20.890;2024-01-25T00:25:37;9.37;;;2.63;;
19358;SDS011;9815;52.334;20.890;2024-01-25T00:28:06;6.57;;;2.30;;
19358;SDS011;9815;52.334;20.890;2024-01-25T00:30:34;4.37;;;2.33;;
19358;SDS011;9815;52.334;20.890;2024-01-25T00:33:03;4.53;;;2.17;;
19358;SDS011;9815;52.334;20.890;2024-01-25T00:35:32;8.93;;;2.20;;
19358;SDS011;9815;52.334;20.890;2024-01-25T00:38:03;9.30;;;2.63;;
19358;SDS011;9815;52.334;20.890;2024-01-25T00:40:32;5.03;;;2.07;;
19358;SDS011;9815;52.334;20.890;2024-01-25T00:43:01;8.40;;;2.50;;
19358;SDS011;9815;52.334;20.890;2024-01-25T00:45:30;9.33;;;2.53;;
19358;SDS011;9815;52.334;20.890;2024-01-25T00:47:59;5.70;;;2.07;;
19358;SDS011;9815;52.334;20.890;2024-01-25T00:50:28;8.13;;;2.10;;
19358;SDS011;9815;52.334;20.890;2024-01-25T00:52:57;8.13;;;2.40;;
19358;SDS011;9815;52.334;20.890;2024-01-25T00:55:28;4.10;;;1.80;;
19358;SDS011;9815;52.334;20.890;2024-01-25T00:57:57;7.83;;;1.93;;
19358;SDS011;9815;52.334;20.890;2024-01-25T01:00:26;5.73;;;2.30;;
19358;SDS011;9815;52.334;20.890;2024-01-25T01:02:56;10.13;;;2.27;;
19358;SDS011;9815;52.334;20.890;2024-01-25T01:05:28;4.43;;;2.20;;
19358;SDS011;9815;52.334;20.890;2024-01-25T01:07:57;6.97;;;1.87;;
19358;SDS011;9815;52.334;20.890;2024-01-25T01:10:27;5.03;;;1.97;;
19358;SDS011;9815;52.334;20.890;2024-01-25T01:12:56;10.50;;;2.17;;
19358;SDS011;9815;52.334;20.890;2024-01-25T01:15:24;6.10;;;1.73;;
19358;SDS011;9815;52.334;20.890;2024-01-25T01:17:53;4.60;;;1.90;;
19358;SDS011;9815;52.334;20.890;2024-01-25T01:20:21;10.67;;;2.00;;
19358;SDS011;9815;52.334;20.890;2024-01-25T01:22:51;12.43;;;2.20;;
19358;SDS011;9815;52.334;20.890;2024-01-25T01:25:20;5.27;;;2.40;;
19358;SDS011;9815;52.334;20.890;2024-01-25T01:27:49;7.50;;;2.17;;
19358;SDS011;9815;52.334;20.890;2024-01-25T01:30:18;5.67;;;2.10;;
19358;SDS011;9815;52.334;20.890;2024-01-25T01:32:47;7.63;;;2.40;;
19358;SDS011;9815;52.334;20.890;2024-01-25T01:35:17;8.30;;;2.47;;
19358;SDS011;9815;52.334;20.890;2024-01-25T01:37:45;12.43;;;2.60;;
19358;SDS011;9815;52.334;20.890;2024-01-25T01:40:14;10.27;;;2.67;;
19358;SDS011;9815;52.334;20.890;2024-01-25T01:42:42;11.17;;;2.40;;
19358;SDS011;9815;52.334;20.890;2024-01-25T01:45:12;13.13;;;2.47;;
19358;SDS011;9815;52.334;20.890;2024-01-25T01:47:41;14.40;;;2.77;;
19358;SDS011;9815;52.334;20.890;2024-01-25T01:50:10;12.07;;;2.43;;
19358;SDS011;9815;52.334;20.890;2024-01-25T01:52:38;8.93;;;2.73;;
19358;SDS011;9815;52.334;20.890;2024-01-25T01:55:08;11.30;;;2.80;;
19358;SDS011;9815;52.334;20.890;2024-01-25T01:57:37;12.60;;;2.70;;
19358;SDS011;9815;52.334;20.890;2024-01-25T02:00:07;12.20;;;2.20;;
19358;SDS011;9815;52.334;20.890;2024-01-25T02:02:39;10.47;;;2.93;;
19358;SDS011;9815;52.334;20.890;2024-01-25T02:05:07;12.13;;;1.90;;
19358;SDS011;9815;52.334;20.890;2024-01-25T02:07:37;11.17;;;2.50;;
19358;SDS011;9815;52.334;20.890;2024-01-25T02:10:08;11.27;;;2.83;;
19358;SDS011;9815;52.334;20.890;2024-01-25T02:12:36;8.13;;;2.10;;
19358;SDS011;9815;52.334;20.890;2024-01-25T02:15:06;4.73;;;1.93;;
19358;SDS011;9815;52.334;20.890;2024-01-25T02:17:35;11.73;;;2.80;;
19358;SDS011;9815;52.334;20.890;2024-01-25T02:20:06;10.43;;;2.57;;
19358;SDS011;9815;52.334;20.890;2024-01-25T02:22:37;8.13;;;2.53;;
19358;SDS011;9815;52.334;20.890;2024-01-25T02:25:06;11.70;;;2.93;;
19358;SDS011;9815;52.334;20.890;2024-01-25T02:27:35;8.97;;;2.53;;
19358;SDS011;9815;52.334;20.890;2024-01-25T02:30:06;11.17;;;2.40;;
19358;SDS011;9815;52.334;20.890;2024-01-25T02:32:35;11.43;;;3.07;;
19358;SDS011;9815;52.334;20.890;2024-01-25T02:35:04;8.77;;;2.50;;
19358;SDS011;9815;52.334;20.890;2024-01-25T02:37:33;15.40;;;2.80;;
19358;SDS011;9815;52.334;20.890;2024-01-25T02:40:03;11.87;;;2.80;;
19358;SDS011;9815;52.334;20.890;2024-01-25T02:42:32;12.40;;;3.10;;
19358;SDS011;9815;52.334;20.890;2024-01-25T02:45:01;12.90;;;2.73;;
19358;SDS011;9815;52.334;20.890;2024-01-25T02:47:29;12.77;;;3.07;;
19358;SDS011;9815;52.334;20.890;2024-01-25T02:49:58;15.53;;;3.07;;
19358;SDS011;9815;52.334;20.890;2024-01-25T02:52:26;17.60;;;3.93;;
19358;SDS011;9815;52.334;20.890;2024-01-25T02:54:55;12.60;;;2.83;;
19358;SDS011;9815;52.334;20.890;2024-01-25T02:57:25;12.30;;;3.13;;
19358;SDS011;9815;52.334;20.890;2024-01-25T02:59:53;8.17;;;2.57;;
19358;SDS011;9815;52.334;20.890;2024-01-25T03:02:22;11.33;;;3.03;;
19358;SDS011;9815;52.334;20.890;2024-01-25T03:04:50;4.43;;;2.50;;
19358;SDS011;9815;52.334;20.890;2024-01-25T03:07:19;11.07;;;3.47;;
19358;SDS011;9815;52.334;20.890;2024-01-25T03:09:47;9.40;;;3.00;;
19358;SDS011;9815;52.334;20.890;2024-01-25T03:12:16;10.83;;;2.90;;
19358;SDS011;9815;52.334;20.890;2024-01-25T03:14:46;13.13;;;2.93;;
19358;SDS011;9815;52.334;20.890;2024-01-25T03:17:15;13.77;;;2.77;;
19358;SDS011;9815;52.334;20.890;2024-01-25T03:19:43;15.40;;;2.53;;
19358;SDS011;9815;52.334;20.890;2024-01-25T03:22:12;12.50;;;2.90;;
19358;SDS011;9815;52.334;20.890;2024-01-25T03:24:40;9.57;;;3.07;;
19358;SDS011;9815;52.334;20.890;2024-01-25T03:27:09;10.53;;;3.20;;
19358;SDS011;9815;52.334;20.890;2024-01-25T03:29:40;12.20;;;3.37;;
19358;SDS011;9815;52.334;20.890;2024-01-25T03:32:11;12.20;;;3.67;;
19358;SDS011;9815;52.334;20.890;2024-01-25T03:34:39;9.27;;;2.97;;
19358;SDS011;9815;52.334;20.890;2024-01-25T03:37:08;11.97;;;3.13;;
19358;SDS011;9815;52.334;20.890;2024-01-25T03:39:36;11.63;;;2.83;;
19358;SDS011;9815;52.334;20.890;2024-01-25T03:42:05;9.37;;;3.30;;
19358;SDS011;9815;52.334;20.890;2024-01-25T03:44:34;11.90;;;3.10;;
19358;SDS011;9815;52.334;20.890;2024-01-25T03:47:02;10.93;;;3.00;;
19358;SDS011;9815;52.334;20.890;2024-01-25T03:49:32;11.27;;;3.13;;
19358;SDS011;9815;52.334;20.890;2024-01-25T03:52:00;12.23;;;3.00;;
19358;SDS011;9815;52.334;20.890;2024-01-25T03:54:29;9.13;;;2.80;;
19358;SDS011;9815;52.334;20.890;2024-01-25T03:56:58;17.97;;;3.10;;
19358;SDS011;9815;52.334;20.890;2024-01-25T03:59:26;11.43;;;3.03;;
19358;SDS011;9815;52.334;20.890;2024-01-25T04:01:54;14.70;;;3.33;;
19358;SDS011;9815;52.334;20.890;2024-01-25T04:04:23;11.27;;;3.47;;
19358;SDS011;9815;52.334;20.890;2024-01-25T04:06:53;10.40;;;3.13;;
19358;SDS011;9815;52.334;20.890;2024-01-25T04:09:22;17.53;;;3.40;;
19358;SDS011;9815;52.334;20.890;2024-01-25T04:11:51;7.90;;;3.20;;
19358;SDS011;9815;52.334;20.890;2024-01-25T04:14:19;9.60;;;2.87;;
19358;SDS011;9815;52.334;20.890;2024-01-25T04:16:47;8.40;;;3.23;;
19358;SDS011;9815;52.334;20.890;2024-01-25T04:19:16;15.17;;;3.47;;
19358;SDS011;9815;52.334;20.890;2024-01-25T04:21:44;12.80;;;2.83;;
19358;SDS011;9815;52.334;20.890;2024-01-25T04:24:14;17.13;;;3.47;;
19358;SDS011;9815;52.334;20.890;2024-01-25T04:26:42;9.97;;;3.07;;
19358;SDS011;9815;52.334;20.890;2024-01-25T04:29:11;13.40;;;3.17;;
19358;SDS011;9815;52.334;20.890;2024-01-25T04:31:42;15.13;;;3.27;;
19358;SDS011;9815;52.334;20.890;2024-01-25T04:34:12;21.17;;;3.83;;
19358;SDS011;9815;52.334;20.890;2024-01-25T04:36:41;12.33;;;3.37;;
19358;SDS011;9815;52.334;20.890;2024-01-25T04:39:10;15.40;;;3.53;;
19358;SDS011;9815;52.334;20.890;2024-01-25T04:41:40;15.23;;;3.43;;
19358;SDS011;9815;52.334;20.890;2024-01-25T04:44:08;10.67;;;3.20;;
19358;SDS011;9815;52.334;20.890;2024-01-25T04:46:37;20.57;;;3.67;;
19358;SDS011;9815;52.334;20.890;2024-01-25T04:49:05;12.07;;;3.37;;
19358;SDS011;9815;52.334;20.890;2024-01-25T04:51:34;14.37;;;2.93;;
19358;SDS011;9815;52.334;20.890;2024-01-25T04:54:02;16.27;;;3.77;;
19358;SDS011;9815;52.334;20.890;2024-01-25T04:56:30;18.03;;;3.47;;
19358;SDS011;9815;52.334;20.890;2024-01-25T04:59:00;10.07;;;3.10;;
19358;SDS011;9815;52.334;20.890;2024-01-25T05:01:28;11.67;;;2.67;;
19358;SDS011;9815;52.334;20.890;2024-01-25T05:03:57;8.77;;;2.80;;
19358;SDS011;9815;52.334;20.890;2024-01-25T05:06:26;10.67;;;2.73;;
19358;SDS011;9815;52.334;20.890;2024-01-25T05:08:54;13.30;;;3.13;;
19358;SDS011;9815;52.334;20.890;2024-01-25T05:11:22;14.63;;;3.30;;
19358;SDS011;9815;52.334;20.890;2024-01-25T05:13:51;14.80;;;3.77;;
19358;SDS011;9815;52.334;20.890;2024-01-25T05:16:20;11.87;;;3.70;;
19358;SDS011;9815;52.334;20.890;2024-01-25T05:18:49;14.10;;;3.53;;
19358;SDS011;9815;52.334;20.890;2024-01-25T05:21:17;13.77;;;3.40;;
19358;SDS011;9815;52.334;20.890;2024-01-25T05:23:46;12.97;;;3.20;;
19358;SDS011;9815;52.334;20.890;2024-01-25T05:26:14;13.77;;;3.10;;
19358;SDS011;9815;52.334;20.890;2024-01-25T05:28:43;9.87;;;3.10;;
19358;SDS011;9815;52.334;20.890;2024-01-25T05:31:11;10.80;;;2.90;;
19358;SDS011;9815;52.334;20.890;2024-01-25T05:33:41;6.93;;;2.57;;
19358;SDS011;9815;52.334;20.890;2024-01-25T05:36:10;9.00;;;2.90;;
19358;SDS011;9815;52.334;20.890;2024-01-25T05:38:38;8.53;;;3.00;;
19358;SDS011;9815;52.334;20.890;2024-01-25T05:41:07;11.27;;;3.13;;
19358;SDS011;9815;52.334;20.890;2024-01-25T05:43:35;5.60;;;2.70;;
19358;SDS011;9815;52.334;20.890;2024-01-25T05:46:05;8.47;;;2.90;;
19358;SDS011;9815;52.334;20.890;2024-01-25T05:48:33;12.07;;;2.63;;
19358;SDS011;9815;52.334;20.890;2024-01-25T05:51:03;10.37;;;2.90;;
19358;SDS011;9815;52.334;20.890;2024-01-25T05:53:32;9.67;;;2.93;;
19358;SDS011;9815;52.334;20.890;2024-01-25T05:56:01;11.27;;;3.07;;
19358;SDS011;9815;52.334;20.890;2024-01-25T05:58:30;6.57;;;2.53;;
19358;SDS011;9815;52.334;20.890;2024-01-25T06:00:59;8.27;;;2.63;;
19358;SDS011;9815;52.334;20.890;2024-01-25T06:03:27;16.17;;;3.30;;
19358;SDS011;9815;52.334;20.890;2024-01-25T06:05:56;9.40;;;3.20;;
19358;SDS011;9815;52.334;20.890;2024-01-25T06:08:26;10.70;;;3.47;;
19358;SDS011;9815;52.334;20.890;2024-01-25T06:10:55;11.27;;;3.17;;
19358;SDS011;9815;52.334;20.890;2024-01-25T06:13:23;7.60;;;2.63;;
19358;SDS011;9815;52.334;20.890;2024-01-25T06:15:52;7.20;;;2.40;;
19358;SDS011;9815;52.334;20.890;2024-01-25T06:18:20;9.17;;;3.17;;
19358;SDS011;9815;52.334;20.890;2024-01-25T06:20:50;15.10;;;3.57;;
19358;SDS011;9815;52.334;20.890;2024-01-25T06:23:18;11.63;;;3.10;;
19358;SDS011;9815;52.334;20.890;2024-01-25T06:25:48;18.83;;;3.60;;
19358;SDS011;9815;52.334;20.890;2024-01-25T06:28:18;15.60;;;3.33;;
19358;SDS011;9815;52.334;20.890;2024-01-25T06:30:46;9.43;;;3.10;;
19358;SDS011;9815;52.334;20.890;2024-01-25T06:33:15;6.83;;;2.70;;
19358;SDS011;9815;52.334;20.890;2024-01-25T06:35:44;10.47;;;3.23;;
19358;SDS011;9815;52.334;20.890;2024-01-25T06:38:13;9.87;;;2.47;;
19358;SDS011;9815;52.334;20.890;2024-01-25T06:40:41;13.70;;;3.60;;
19358;SDS011;9815;52.334;20.890;2024-01-25T06:43:11;11.57;;;2.67;;
19358;SDS011;9815;52.334;20.890;2024-01-25T06:45:40;7.73;;;3.00;;
19358;SDS011;9815;52.334;20.890;2024-01-25T06:48:08;10.37;;;2.50;;
19358;SDS011;9815;52.334;20.890;2024-01-25T06:50:37;9.60;;;2.63;;
19358;SDS011;9815;52.334;20.890;2024-01-25T06:53:06;9.97;;;2.67;;
19358;SDS011;9815;52.334;20.890;2024-01-25T06:55:35;9.80;;;2.67;;
19358;SDS011;9815;52.334;20.890;2024-01-25T06:58:03;9.23;;;2.57;;
19358;SDS011;9815;52.334;20.890;2024-01-25T07:00:33;12.93;;;3.10;;
19358;SDS011;9815;52.334;20.890;2024-01-25T07:03:02;4.97;;;2.07;;
19358;SDS011;9815;52.334;20.890;2024-01-25T07:05:31;13.63;;;3.43;;
19358;SDS011;9815;52.334;20.890;2024-01-25T07:08:01;14.20;;;2.90;;
19358;SDS011;9815;52.334;20.890;2024-01-25T07:10:30;7.30;;;2.60;;
19358;SDS011;9815;52.334;20.890;2024-01-25T07:12:59;5.23;;;2.47;;
19358;SDS011;9815;52.334;20.890;2024-01-25T07:15:27;11.03;;;3.23;;
19358;SDS011;9815;52.334;20.890;2024-01-25T07:17:57;10.93;;;3.40;;
19358;SDS011;9815;52.334;20.890;2024-01-25T07:20:25;13.97;;;3.20;;
19358;SDS011;9815;52.334;20.890;2024-01-25T07:22:54;8.57;;;3.37;;
19358;SDS011;9815;52.334;20.890;2024-01-25T07:25:23;6.10;;;3.00;;
19358;SDS011;9815;52.334;20.890;2024-01-25T07:27:52;8.70;;;2.80;;
19358;SDS011;9815;52.334;20.890;2024-01-25T07:30:20;8.37;;;2.80;;
19358;SDS011;9815;52.334;20.890;2024-01-25T07:32:49;4.00;;;2.50;;
19358;SDS011;9815;52.334;20.890;2024-01-25T07:35:19;8.57;;;2.83;;
19358;SDS011;9815;52.334;20.890;2024-01-25T07:37:50;8.33;;;2.90;;
19358;SDS011;9815;52.334;20.890;2024-01-25T07:40:18;6.87;;;3.13;;
19358;SDS011;9815;52.334;20.890;2024-01-25T07:42:47;6.33;;;2.97;;
19358;SDS011;9815;52.334;20.890;2024-01-25T07:45:16;6.40;;;2.50;;
19358;SDS011;9815;52.334;20.890;2024-01-25T07:47:45;9.47;;;3.03;;
19358;SDS011;9815;52.334;20.890;2024-01-25T07:50:21;7.47;;;2.80;;
19358;SDS011;9815;52.334;20.890;2024-01-25T07:52:49;5.47;;;2.67;;
19358;SDS011;9815;52.334;20.890;2024-01-25T07:55:18;6.03;;;2.37;;
19358;SDS011;9815;52.334;20.890;2024-01-25T07:57:46;7.30;;;2.93;;
19358;SDS011;9815;52.334;20.890;2024-01-25T08:00:15;4.53;;;2.67;;
19358;SDS011;9815;52.334;20.890;2024-01-25T08:02:43;6.20;;;2.53;;
19358;SDS011;9815;52.334;20.890;2024-01-25T08:05:12;7.43;;;2.23;;
19358;SDS011;9815;52.334;20.890;2024-01-25T08:07:42;8.00;;;2.70;;
19358;SDS011;9815;52.334;20.890;2024-01-25T08:10:13;5.60;;;3.23;;
19358;SDS011;9815;52.334;20.890;2024-01-25T08:12:41;5.57;;;2.93;;
19358;SDS011;9815;52.334;20.890;2024-01-25T08:15:21;8.77;;;2.93;;
19358;SDS011;9815;52.334;20.890;2024-01-25T08:17:49;5.03;;;2.67;;
19358;SDS011;9815;52.334;20.890;2024-01-25T08:20:18;7.67;;;3.07;;
19358;SDS011;9815;52.334;20.890;2024-01-25T08:22:49;4.97;;;3.03;;
19358;SDS011;9815;52.334;20.890;2024-01-25T08:25:17;3.73;;;2.50;;
19358;SDS011;9815;52.334;20.890;2024-01-25T08:27:47;9.87;;;3.37;;
19358;SDS011;9815;52.334;20.890;2024-01-25T08:30:16;4.50;;;2.60;;
19358;SDS011;9815;52.334;20.890;2024-01-25T08:32:44;8.87;;;2.90;;
19358;SDS011;9815;52.334;20.890;2024-01-25T08:35:13;7.93;;;3.30;;
19358;SDS011;9815;52.334;20.890;2024-01-25T08:37:42;3.07;;;2.23;;
19358;SDS011;9815;52.334;20.890;2024-01-25T08:40:12;8.77;;;2.53;;
19358;SDS011;9815;52.334;20.890;2024-01-25T08:42:41;3.83;;;2.70;;
19358;SDS011;9815;52.334;20.890;2024-01-25T08:45:09;6.97;;;2.77;;
19358;SDS011;9815;52.334;20.890;2024-01-25T08:47:44;10.53;;;3.00;;
19358;SDS011;9815;52.334;20.890;2024-01-25T08:50:13;4.70;;;2.33;;
19358;SDS011;9815;52.334;20.890;2024-01-25T08:52:42;4.70;;;2.83;;
19358;SDS011;9815;52.334;20.890;2024-01-25T08:55:12;5.90;;;3.10;;
19358;SDS011;9815;52.334;20.890;2024-01-25T08:57:41;3.97;;;2.77;;
19358;SDS011;9815;52.334;20.890;2024-01-25T09:00:09;8.80;;;4.00;;
19358;SDS011;9815;52.334;20.890;2024-01-25T09:02:38;12.07;;;3.70;;
19358;SDS011;9815;52.334;20.890;2024-01-25T09:05:07;21.13;;;7.00;;
19358;SDS011;9815;52.334;20.890;2024-01-25T09:07:36;10.03;;;4.93;;
19358;SDS011;9815;52.334;20.890;2024-01-25T09:10:05;6.00;;;3.40;;
19358;SDS011;9815;52.334;20.890;2024-01-25T09:12:37;4.67;;;2.90;;
19358;SDS011;9815;52.334;20.890;2024-01-25T09:15:06;6.43;;;3.33;;
19358;SDS011;9815;52.334;20.890;2024-01-25T09:17:35;5.93;;;3.33;;
19358;SDS011;9815;52.334;20.890;2024-01-25T09:20:05;6.30;;;3.00;;
19358;SDS011;9815;52.334;20.890;2024-01-25T09:22:36;4.23;;;2.83;;
19358;SDS011;9815;52.334;20.890;2024-01-25T09:25:04;5.47;;;3.63;;
19358;SDS011;9815;52.334;20.890;2024-01-25T09:27:37;6.63;;;3.20;;
19358;SDS011;9815;52.334;20.890;2024-01-25T09:30:06;3.40;;;2.73;;
19358;SDS011;9815;52.334;20.890;2024-01-25T09:32:35;3.90;;;2.80;;
19358;SDS011;9815;52.334;20.890;2024-01-25T09:35:04;4.40;;;2.87;;
19358;SDS011;9815;52.334;20.890;2024-01-25T09:37:35;4.90;;;2.87;;
19358;SDS011;9815;52.334;20.890;2024-01-25T09:40:04;6.70;;;2.90;;
19358;SDS011;9815;52.334;20.890;2024-01-25T09:42:34;3.50;;;2.60;;
19358;SDS011;9815;52.334;20.890;2024-01-25T09:45:04;6.17;;;3.00;;
19358;SDS011;9815;52.334;20.890;2024-01-25T09:47:35;4.17;;;2.90;;
19358;SDS011;9815;52.334;20.890;2024-01-25T09:50:03;7.30;;;2.80;;
19358;SDS011;9815;52.334;20.890;2024-01-25T09:52:33;7.90;;;3.07;;
19358;SDS011;9815;52.334;20.890;2024-01-25T09:55:03;5.60;;;2.80;;
19358;SDS011;9815;52.334;20.890;2024-01-25T09:57:35;3.73;;;2.60;;
19358;SDS011;9815;52.334;20.890;2024-01-25T10:00:06;7.03;;;3.13;;
19358;SDS011;9815;52.334;20.890;2024-01-25T10:02:38;4.93;;;2.77;;
19358;SDS011;9815;52.334;20.890;2024-01-25T10:05:07;2.77;;;2.33;;
19358;SDS011;9815;52.334;20.890;2024-01-25T10:07:37;5.40;;;2.77;;
19358;SDS011;9815;52.334;20.890;2024-01-25T10:10:09;4.47;;;2.83;;
19358;SDS011;9815;52.334;20.890;2024-01-25T10:12:40;4.97;;;2.67;;
19358;SDS011;9815;52.334;20.890;2024-01-25T10:15:11;4.43;;;2.50;;
19358;SDS011;9815;52.334;20.890;2024-01-25T10:17:40;3.50;;;2.40;;
19358;SDS011;9815;52.334;20.890;2024-01-25T10:20:30;5.37;;;2.60;;
19358;SDS011;9815;52.334;20.890;2024-01-25T10:23:00;7.23;;;2.53;;
19358;SDS011;9815;52.334;20.890;2024-01-25T10:25:28;16.40;;;7.53;;
19358;SDS011;9815;52.334;20.890;2024-01-25T10:27:57;5.37;;;2.50;;
19358;SDS011;9815;52.334;20.890;2024-01-25T10:30:27;5.27;;;2.70;;
19358;SDS011;9815;52.334;20.890;2024-01-25T10:32:59;8.73;;;3.43;;
19358;SDS011;9815;52.334;20.890;2024-01-25T10:35:28;4.93;;;2.80;;
19358;SDS011;9815;52.334;20.890;2024-01-25T10:37:58;6.73;;;2.90;;
19358;SDS011;9815;52.334;20.890;2024-01-25T10:40:27;3.87;;;2.40;;
19358;SDS011;9815;52.334;20.890;2024-01-25T10:42:57;4.97;;;2.37;;
19358;SDS011;9815;52.334;20.890;2024-01-25T10:45:25;4.20;;;2.87;;
19358;SDS011;9815;52.334;20.890;2024-01-25T10:47:55;2.70;;;2.00;;
19358;SDS011;9815;52.334;20.890;2024-01-25T10:50:25;4.07;;;2.30;;
19358;SDS011;9815;52.334;20.890;2024-01-25T10:52:54;7.37;;;2.60;;
19358;SDS011;9815;52.334;20.890;2024-01-25T10:55:23;3.53;;;2.17;;
19358;SDS011;9815;52.334;20.890;2024-01-25T10:58:06;5.60;;;2.30;;
19358;SDS011;9815;52.334;20.890;2024-01-25T11:00:37;6.83;;;2.67;;
19358;SDS011;9815;52.334;20.890;2024-01-25T11:03:06;4.70;;;2.00;;
19358;SDS011;9815;52.334;20.890;2024-01-25T11:05:34;3.40;;;2.17;;
19358;SDS011;9815;52.334;20.890;2024-01-25T11:08:04;3.40;;;2.00;;
19358;SDS011;9815;52.334;20.890;2024-01-25T11:10:47;10.53;;;3.17;;
19358;SDS011;9815;52.334;20.890;2024-01-25T11:13:23;4.17;;;2.17;;
19358;SDS011;9815;52.334;20.890;2024-01-25T11:15:55;3.57;;;2.17;;
19358;SDS011;9815;52.334;20.890;2024-01-25T11:18:24;4.47;;;1.90;;
19358;SDS011;9815;52.334;20.890;2024-01-25T11:20:53;4.40;;;2.67;;
19358;SDS011;9815;52.334;20.890;2024-01-25T11:23:31;3.97;;;2.13;;
19358;SDS011;9815;52.334;20.890;2024-01-25T11:25:59;6.33;;;2.30;;
19358;SDS011;9815;52.334;20.890;2024-01-25T11:28:28;4.03;;;2.30;;
19358;SDS011;9815;52.334;20.890;2024-01-25T11:30:58;3.60;;;1.90;;
19358;SDS011;9815;52.334;20.890;2024-01-25T11:33:26;4.77;;;2.00;;
19358;SDS011;9815;52.334;20.890;2024-01-25T11:35:55;5.67;;;1.90;;
19358;SDS011;9815;52.334;20.890;2024-01-25T11:38:23;2.70;;;1.77;;
19358;SDS011;9815;52.334;20.890;2024-01-25T11:40:52;2.57;;;1.80;;
19358;SDS011;9815;52.334;20.890;2024-01-25T11:43:24;2.10;;;1.83;;
19358;SDS011;9815;52.334;20.890;2024-01-25T11:45:53;2.43;;;1.73;;
19358;SDS011;9815;52.334;20.890;2024-01-25T11:48:23;3.37;;;2.10;;
19358;SDS011;9815;52.334;20.890;2024-01-25T11:50:55;4.77;;;2.60;;
19358;SDS011;9815;52.334;20.890;2024-01-25T11:53:23;5.27;;;3.50;;
19358;SDS011;9815;52.334;20.890;2024-01-25T11:55:52;5.77;;;2.53;;
19358;SDS011;9815;52.334;20.890;2024-01-25T11:58:23;7.60;;;2.30;;
19358;SDS011;9815;52.334;20.890;2024-01-25T12:00:53;7.37;;;2.83;;
19358;SDS011;9815;52.334;20.890;2024-01-25T12:03:24;5.10;;;2.10;;
19358;SDS011;9815;52.334;20.890;2024-01-25T12:05:52;3.03;;;2.00;;
19358;SDS011;9815;52.334;20.890;2024-01-25T12:08:20;4.00;;;2.40;;
19358;SDS011;9815;52.334;20.890;2024-01-25T12:10:50;6.03;;;2.90;;
19358;SDS011;9815;52.334;20.890;2024-01-25T12:13:18;5.33;;;2.50;;
19358;SDS011;9815;52.334;20.890;2024-01-25T12:15:47;5.10;;;2.77;;
19358;SDS011;9815;52.334;20.890;2024-01-25T12:18:15;4.53;;;2.27;;
19358;SDS011;9815;52.334;20.890;2024-01-25T12:20:46;6.57;;;2.50;;
19358;SDS011;9815;52.334;20.890;2024-01-25T12:23:15;3.27;;;2.40;;
19358;SDS011;9815;52.334;20.890;2024-01-25T12:25:43;3.37;;;2.20;;
19358;SDS011;9815;52.334;20.890;2024-01-25T12:28:13;3.63;;;2.30;;
19358;SDS011;9815;52.334;20.890;2024-01-25T12:30:42;3.70;;;2.70;;
19358;SDS011;9815;52.334;20.890;2024-01-25T12:33:13;2.47;;;2.27;;
19358;SDS011;9815;52.334;20.890;2024-01-25T12:35:47;5.10;;;2.10;;
19358;SDS011;9815;52.334;20.890;2024-01-25T12:38:16;2.33;;;2.13;;
19358;SDS011;9815;52.334;20.890;2024-01-25T12:40:46;2.40;;;2.10;;
19358;SDS011;9815;52.334;20.890;2024-01-25T12:43:15;2.93;;;2.37;;
19358;SDS011;9815;52.334;20.890;2024-01-25T12:45:44;4.43;;;2.53;;
19358;SDS011;9815;52.334;20.890;2024-01-25T12:48:12;3.33;;;2.40;;
19358;SDS011;9815;52.334;20.890;2024-01-25T12:50:41;2.90;;;2.10;;
19358;SDS011;9815;52.334;20.890;2024-01-25T12:53:12;4.27;;;2.30;;
19358;SDS011;9815;52.334;20.890;2024-01-25T12:55:41;2.33;;;2.07;;
19358;SDS011;9815;52.334;20.890;2024-01-25T12:58:10;2.87;;;2.20;;
19358;SDS011;9815;52.334;20.890;2024-01-25T13:00:40;3.23;;;2.40;;
19358;SDS011;9815;52.334;20.890;2024-01-25T13:03:10;4.70;;;2.53;;
19358;SDS011;9815;52.334;20.890;2024-01-25T13:05:39;4.13;;;2.30;;
19358;SDS011;9815;52.334;20.890;2024-01-25T13:08:08;4.33;;;2.57;;
19358;SDS011;9815;52.334;20.890;2024-01-25T13:10:38;3.90;;;2.83;;
19358;SDS011;9815;52.334;20.890;2024-01-25T13:13:06;4.53;;;2.60;;
19358;SDS011;9815;52.334;20.890;2024-01-25T13:15:35;4.67;;;3.00;;
19358;SDS011;9815;52.334;20.890;2024-01-25T13:18:04;4.20;;;2.80;;
19358;SDS011;9815;52.334;20.890;2024-01-25T13:20:33;6.83;;;3.10;;
19358;SDS011;9815;52.334;20.890;2024-01-25T13:23:02;4.77;;;3.03;;
19358;SDS011;9815;52.334;20.890;2024-01-25T13:25:31;4.43;;;2.77;;
19358;SDS011;9815;52.334;20.890;2024-01-25T13:28:01;4.00;;;2.80;;
19358;SDS011;9815;52.334;20.890;2024-01-25T13:30:30;4.90;;;2.87;;
19358;SDS011;9815;52.334;20.890;2024-01-25T13:32:59;7.20;;;3.37;;
19358;SDS011;9815;52.334;20.890;2024-01-25T13:35:28;3.70;;;2.63;;
19358;SDS011;9815;52.334;20.890;2024-01-25T13:37:56;4.67;;;2.60;;
19358;SDS011;9815;52.334;20.890;2024-01-25T13:40:29;4.03;;;2.87;;
19358;SDS011;9815;52.334;20.890;2024-01-25T13:42:58;5.90;;;2.97;;
19358;SDS011;9815;52.334;20.890;2024-01-25T13:45:30;5.17;;;3.03;;
19358;SDS011;9815;52.334;20.890;2024-01-25T13:48:02;4.33;;;2.73;;
19358;SDS011;9815;52.334;20.890;2024-01-25T13:50:33;4.03;;;2.70;;
19358;SDS011;9815;52.334;20.890;2024-01-25T13:53:05;4.77;;;2.77;;
19358;SDS011;9815;52.334;20.890;2024-01-25T13:55:41;7.00;;;3.27;;
19358;SDS011;9815;52.334;20.890;2024-01-25T13:58:10;5.10;;;3.40;;
19358;SDS011;9815;52.334;20.890;2024-01-25T14:00:40;5.70;;;3.10;;
19358;SDS011;9815;52.334;20.890;2024-01-25T14:03:14;4.40;;;2.80;;
19358;SDS011;9815;52.334;20.890;2024-01-25T14:05:46;5.13;;;3.07;;
19358;SDS011;9815;52.334;20.890;2024-01-25T14:08:20;6.43;;;3.00;;
19358;SDS011;9815;52.334;20.890;2024-01-25T14:11:01;3.23;;;2.93;;
19358;SDS011;9815;52.334;20.890;2024-01-25T14:13:33;5.80;;;3.30;;
19358;SDS011;9815;52.334;20.890;2024-01-25T14:16:07;4.07;;;2.80;;
19358;SDS011;9815;52.334;20.890;2024-01-25T14:18:53;3.30;;;2.33;;
19358;SDS011;9815;52.334;20.890;2024-01-25T14:21:24;4.03;;;2.40;;
19358;SDS011;9815;52.334;20.890;2024-01-25T14:23:53;3.23;;;2.23;;
19358;SDS011;9815;52.334;20.890;2024-01-25T14:26:22;3.03;;;2.20;;
19358;SDS011;9815;52.334;20.890;2024-01-25T14:28:50;5.00;;;3.30;;
19358;SDS011;9815;52.334;20.890;2024-01-25T14:31:20;4.20;;;2.50;;
19358;SDS011;9815;52.334;20.890;2024-01-25T14:33:49;7.37;;;3.27;;
19358;SDS011;9815;52.334;20.890;2024-01-25T14:36:21;6.13;;;3.40;;
19358;SDS011;9815;52.334;20.890;2024-01-25T14:38:53;6.90;;;3.10;;
19358;SDS011;9815;52.334;20.890;2024-01-25T14:41:32;7.03;;;3.00;;
19358;SDS011;9815;52.334;20.890;2024-01-25T14:44:04;3.73;;;3.20;;
19358;SDS011;9815;52.334;20.890;2024-01-25T14:46:34;7.83;;;3.10;;
19358;SDS011;9815;52.334;20.890;2024-01-25T14:49:03;5.37;;;2.50;;
19358;SDS011;9815;52.334;20.890;2024-01-25T14:51:31;4.60;;;2.60;;
19358;SDS011;9815;52.334;20.890;2024-01-25T14:53:59;5.70;;;2.90;;
19358;SDS011;9815;52.334;20.890;2024-01-25T14:56:28;2.80;;;2.33;;